createdAt,value
2019-05-13T00:00:59.154Z,1014.02
2019-05-13T00:01:59.146Z,1014.08
2019-05-13T00:02:59.124Z,1014.05
2019-05-13T00:03:59.100Z,1014.06
2019-05-13T00:04:59.137Z,1014.03
2019-05-13T00:05:59.089Z,1014.10
2019-05-13T00:06:59.074Z,1014.05
2019-05-13T00:07:59.056Z,1014.15
2019-05-13T00:08:59.049Z,1014.16
2019-05-13T00:09:59.054Z,1014.15
2019-05-13T00:10:59.053Z,1014.18
2019-05-13T00:11:59.017Z,1014.16
2019-05-13T00:12:59.026Z,1014.19
2019-05-13T00:13:58.988Z,1014.14
2019-05-13T00:14:59.034Z,1014.13
2019-05-13T00:15:58.971Z,1014.15
2019-05-13T00:16:58.978Z,1014.15
2019-05-13T00:17:58.949Z,1014.21
2019-05-13T00:18:58.950Z,1014.13
2019-05-13T00:19:58.949Z,1014.15
2019-05-13T00:20:58.917Z,1014.17
2019-05-13T00:21:58.906Z,1014.10
2019-05-13T00:22:58.954Z,1014.17
2019-05-13T00:23:58.888Z,1014.17
2019-05-13T00:24:58.888Z,1014.16
2019-05-13T00:25:58.868Z,1014.18
2019-05-13T00:26:58.847Z,1014.18
2019-05-13T00:27:58.839Z,1014.19
2019-05-13T00:28:58.859Z,1014.17
2019-05-13T00:29:58.844Z,1014.18
2019-05-13T00:30:58.804Z,1014.17
2019-05-13T00:31:58.794Z,1014.11
2019-05-13T00:32:58.781Z,1014.17
2019-05-13T00:33:58.772Z,1014.20
2019-05-13T00:34:58.801Z,1014.23
2019-05-13T00:35:58.748Z,1014.23
2019-05-13T00:37:08.927Z,1014.24
2019-05-13T00:37:59.738Z,1014.24
2019-05-13T00:38:58.725Z,1014.23
2019-05-13T00:39:58.715Z,1014.24
2019-05-13T00:40:58.712Z,1014.32
2019-05-13T00:41:58.685Z,1014.25
2019-05-13T00:42:58.698Z,1014.24
2019-05-13T00:43:58.678Z,1014.25
2019-05-13T00:44:58.661Z,1014.23
2019-05-13T00:45:58.636Z,1014.23
2019-05-13T00:46:58.641Z,1014.25
2019-05-13T00:47:58.650Z,1014.24
2019-05-13T00:48:58.605Z,1014.28
2019-05-13T00:49:58.597Z,1014.24
2019-05-13T00:50:58.584Z,1014.22
2019-05-13T00:51:58.564Z,1014.21
2019-05-13T00:52:58.575Z,1014.20
2019-05-13T00:53:58.570Z,1014.21
2019-05-13T00:54:59.460Z,1014.20
2019-05-13T00:55:58.539Z,1014.14
2019-05-13T00:56:58.530Z,1014.18
2019-05-13T00:57:58.498Z,1014.18
2019-05-13T00:58:58.543Z,1014.21
2019-05-13T00:59:58.527Z,1014.18
2019-05-13T01:00:58.479Z,1014.11
2019-05-13T01:01:58.484Z,1014.18
2019-05-13T01:02:58.466Z,1014.14
2019-05-13T01:03:58.434Z,1014.13
2019-05-13T01:04:58.473Z,1014.14
2019-05-13T01:05:58.434Z,1014.12
2019-05-13T01:06:58.408Z,1014.13
2019-05-13T01:07:58.405Z,1014.18
2019-05-13T01:08:58.375Z,1014.17
2019-05-13T01:09:58.386Z,1014.17
2019-05-13T01:10:58.381Z,1014.18
2019-05-13T01:11:58.341Z,1014.15
2019-05-13T01:12:58.383Z,1014.22
2019-05-13T01:13:58.327Z,1014.18
2019-05-13T01:14:58.310Z,1014.18
2019-05-13T01:15:58.317Z,1014.19
2019-05-13T01:16:58.317Z,1014.18
2019-05-13T01:17:58.287Z,1014.15
2019-05-13T01:18:58.265Z,1014.19
2019-05-13T01:19:58.292Z,1014.17
2019-05-13T01:20:58.247Z,1014.18
2019-05-13T01:21:58.228Z,1014.16
2019-05-13T01:22:58.277Z,1014.13
2019-05-13T01:23:58.221Z,1014.14
2019-05-13T01:24:58.204Z,1014.09
2019-05-13T01:25:58.185Z,1014.10
2019-05-13T01:26:58.206Z,1014.15
2019-05-13T01:27:58.178Z,1014.18
2019-05-13T01:28:58.176Z,1014.20
2019-05-13T01:29:58.187Z,1014.19
2019-05-13T01:30:58.135Z,1014.18
2019-05-13T01:31:58.120Z,1014.17
2019-05-13T01:32:58.109Z,1014.15
2019-05-13T01:33:58.097Z,1014.17
2019-05-13T01:34:58.103Z,1014.19
2019-05-13T01:35:58.122Z,1014.15
2019-05-13T01:36:58.068Z,1014.19
2019-05-13T01:37:58.057Z,1014.14
2019-05-13T01:38:58.049Z,1014.14
2019-05-13T01:39:58.044Z,1014.16
2019-05-13T01:40:58.038Z,1014.17
2019-05-13T01:41:58.023Z,1014.18
2019-05-13T01:42:57.992Z,1014.15
2019-05-13T01:43:57.990Z,1014.21
2019-05-13T01:44:57.981Z,1014.19
2019-05-13T01:45:57.972Z,1014.19
2019-05-13T01:46:57.998Z,1014.21
2019-05-13T01:47:57.940Z,1014.19
2019-05-13T01:48:57.954Z,1014.17
2019-05-13T01:49:57.923Z,1014.26
2019-05-13T01:50:57.905Z,1014.25
2019-05-13T01:51:57.917Z,1014.24
2019-05-13T01:52:57.916Z,1014.27
2019-05-13T01:53:57.894Z,1014.31
2019-05-13T01:54:57.862Z,1014.32
2019-05-13T01:55:57.860Z,1014.28
2019-05-13T01:56:57.870Z,1014.31
2019-05-13T01:57:57.837Z,1014.26
2019-05-13T01:58:57.855Z,1014.29
2019-05-13T01:59:57.827Z,1014.30
2019-05-13T02:00:57.793Z,1014.32
2019-05-13T02:01:57.786Z,1014.28
2019-05-13T02:02:57.775Z,1014.26
2019-05-13T02:03:57.774Z,1014.28
2019-05-13T02:04:57.776Z,1014.28
2019-05-13T02:05:57.740Z,1014.27
2019-05-13T02:06:57.723Z,1014.25
2019-05-13T02:08:00.584Z,1014.25
2019-05-13T02:08:57.721Z,1014.31
2019-05-13T02:09:57.704Z,1014.30
2019-05-13T02:10:57.711Z,1014.25
2019-05-13T02:11:57.687Z,1014.32
2019-05-13T02:12:57.656Z,1014.32
2019-05-13T02:13:57.658Z,1014.27
2019-05-13T02:14:57.638Z,1014.34
2019-05-13T02:15:57.622Z,1014.31
2019-05-13T02:16:57.638Z,1014.30
2019-05-13T02:17:57.604Z,1014.36
2019-05-13T02:18:57.594Z,1014.34
2019-05-13T02:19:57.581Z,1014.32
2019-05-13T02:20:57.573Z,1014.31
2019-05-13T02:21:57.560Z,1014.36
2019-05-13T02:22:57.582Z,1014.35
2019-05-13T02:23:57.553Z,1014.34
2019-05-13T02:24:57.527Z,1014.36
2019-05-13T02:25:57.534Z,1014.39
2019-05-13T02:26:57.536Z,1014.42
2019-05-13T02:27:57.533Z,1014.42
2019-05-13T02:28:57.498Z,1014.44
2019-05-13T02:29:57.475Z,1014.43
2019-05-13T02:30:57.468Z,1014.42
2019-05-13T02:31:57.496Z,1014.40
2019-05-13T02:32:57.433Z,1014.40
2019-05-13T02:33:57.431Z,1014.39
2019-05-13T02:34:57.430Z,1014.37
2019-05-13T02:35:57.465Z,1014.38
2019-05-13T02:36:57.390Z,1014.37
2019-05-13T02:38:14.741Z,1014.41
2019-05-13T02:38:58.378Z,1014.36
2019-05-13T02:39:57.354Z,1014.31
2019-05-13T02:40:57.512Z,1014.31
2019-05-13T02:41:57.352Z,1014.30
2019-05-13T02:42:57.342Z,1014.34
2019-05-13T02:43:57.310Z,1014.39
2019-05-13T02:44:57.296Z,1014.43
2019-05-13T02:45:57.338Z,1014.40
2019-05-13T02:46:57.325Z,1014.42
2019-05-13T02:47:57.265Z,1014.44
2019-05-13T02:48:57.253Z,1014.50
2019-05-13T02:50:00.916Z,1014.50
2019-05-13T02:50:58.244Z,1014.53
2019-05-13T02:51:57.222Z,1014.53
2019-05-13T02:52:57.266Z,1014.57
2019-05-13T02:53:57.203Z,1014.55
2019-05-13T02:54:57.190Z,1014.58
2019-05-13T02:55:57.173Z,1014.53
2019-05-13T02:56:57.192Z,1014.56
2019-05-13T02:57:57.170Z,1014.54
2019-05-13T02:58:57.191Z,1014.53
2019-05-13T02:59:57.126Z,1014.53
2019-05-13T03:00:57.174Z,1014.51
2019-05-13T03:01:57.119Z,1014.54
2019-05-13T03:02:57.093Z,1014.53
2019-05-13T03:03:57.078Z,1014.52
2019-05-13T03:04:57.090Z,1014.52
2019-05-13T03:05:57.082Z,1014.49
2019-05-13T03:06:57.074Z,1014.43
2019-05-13T03:07:57.040Z,1014.50
2019-05-13T03:08:57.039Z,1014.45
2019-05-13T03:09:57.027Z,1014.47
2019-05-13T03:10:57.034Z,1014.49
2019-05-13T03:11:56.989Z,1014.49
2019-05-13T03:12:57.015Z,1014.43
2019-05-13T03:13:56.971Z,1014.44
2019-05-13T03:14:56.988Z,1014.47
2019-05-13T03:15:56.962Z,1014.45
2019-05-13T03:16:56.969Z,1014.43
2019-05-13T03:17:56.946Z,1014.46
2019-05-13T03:18:56.933Z,1014.45
2019-05-13T03:19:56.933Z,1014.44
2019-05-13T03:20:56.911Z,1014.46
2019-05-13T03:21:56.897Z,1014.52
2019-05-13T03:22:56.917Z,1014.54
2019-05-13T03:23:56.897Z,1014.59
2019-05-13T03:24:56.897Z,1014.62
2019-05-13T03:25:56.848Z,1014.62
2019-05-13T03:26:56.834Z,1014.65
2019-05-13T03:27:56.841Z,1014.65
2019-05-13T03:28:56.845Z,1014.64
2019-05-13T03:29:56.819Z,1014.63
2019-05-13T03:30:57.274Z,1014.65
2019-05-13T03:31:57.046Z,1014.68
2019-05-13T03:33:02.188Z,1014.67
2019-05-13T03:33:57.825Z,1014.68
2019-05-13T03:34:57.275Z,1014.70
2019-05-13T03:35:56.857Z,1014.67
2019-05-13T03:36:58.078Z,1014.74
2019-05-13T03:37:56.734Z,1014.76
2019-05-13T03:39:05.561Z,1014.72
2019-05-13T03:39:57.718Z,1014.70
2019-05-13T03:40:56.687Z,1014.76
2019-05-13T03:41:56.664Z,1014.74
2019-05-13T03:42:56.655Z,1014.78
2019-05-13T03:43:56.655Z,1014.77
2019-05-13T03:44:56.648Z,1014.76
2019-05-13T03:45:56.654Z,1014.79
2019-05-13T03:46:56.620Z,1014.77
2019-05-13T03:47:56.677Z,1014.75
2019-05-13T03:48:56.619Z,1014.77
2019-05-13T03:49:56.597Z,1014.76
2019-05-13T03:50:56.584Z,1014.74
2019-05-13T03:51:56.595Z,1014.75
2019-05-13T03:52:56.591Z,1014.74
2019-05-13T03:53:56.540Z,1014.74
2019-05-13T03:54:56.523Z,1014.78
2019-05-13T03:55:56.518Z,1014.78
2019-05-13T03:56:56.498Z,1014.76
2019-05-13T03:57:56.556Z,1014.75
2019-05-13T03:58:56.480Z,1014.83
2019-05-13T03:59:56.470Z,1014.80
2019-05-13T04:00:56.465Z,1014.82
2019-05-13T04:01:56.444Z,1014.87
2019-05-13T04:02:56.438Z,1014.79
2019-05-13T04:03:56.462Z,1014.82
2019-05-13T04:04:59.020Z,1014.87
2019-05-13T04:05:57.409Z,1014.87
2019-05-13T04:06:56.395Z,1014.84
2019-05-13T04:07:56.402Z,1014.84
2019-05-13T04:09:15.685Z,1014.94
2019-05-13T04:09:57.373Z,1014.93
2019-05-13T04:10:56.344Z,1014.93
2019-05-13T04:11:56.362Z,1015.01
2019-05-13T04:12:56.345Z,1014.99
2019-05-13T04:13:56.342Z,1014.99
2019-05-13T04:14:56.306Z,1015.00
2019-05-13T04:15:56.340Z,1015.03
2019-05-13T04:16:56.310Z,1015.03
2019-05-13T04:17:56.286Z,1015.04
2019-05-13T04:18:56.276Z,1015.09
2019-05-13T04:19:56.246Z,1015.12
2019-05-13T04:20:56.926Z,1015.11
2019-05-13T04:21:56.263Z,1015.21
2019-05-13T04:22:56.243Z,1015.23
2019-05-13T04:23:56.199Z,1015.27
2019-05-13T04:24:56.216Z,1015.22
2019-05-13T04:25:56.182Z,1015.27
2019-05-13T04:26:56.179Z,1015.32
2019-05-13T04:27:56.183Z,1015.32
2019-05-13T04:28:56.164Z,1015.24
2019-05-13T04:29:56.144Z,1015.25
2019-05-13T04:30:56.159Z,1015.22
2019-05-13T04:31:56.130Z,1015.28
2019-05-13T04:32:56.114Z,1015.31
2019-05-13T04:33:56.127Z,1015.36
2019-05-13T04:34:56.123Z,1015.39
2019-05-13T04:35:56.084Z,1015.45
2019-05-13T04:36:56.064Z,1015.55
2019-05-13T04:37:56.059Z,1015.59
2019-05-13T04:38:56.064Z,1015.62
2019-05-13T04:39:56.698Z,1015.62
2019-05-13T04:40:56.030Z,1015.66
2019-05-13T04:41:56.045Z,1015.64
2019-05-13T04:42:56.002Z,1015.69
2019-05-13T04:43:55.995Z,1015.80
2019-05-13T04:44:55.972Z,1015.76
2019-05-13T04:45:55.987Z,1015.84
2019-05-13T04:46:55.951Z,1015.93
2019-05-13T04:47:55.943Z,1016.02
2019-05-13T04:48:55.926Z,1015.94
2019-05-13T04:49:55.925Z,1015.94
2019-05-13T04:50:55.924Z,1015.90
2019-05-13T04:51:55.920Z,1015.97
2019-05-13T04:52:55.884Z,1015.88
2019-05-13T04:53:57.273Z,1015.60
2019-05-13T04:54:55.869Z,1015.99
2019-05-13T04:55:55.851Z,1016.00
2019-05-13T04:56:55.832Z,1016.04
2019-05-13T04:57:55.845Z,1015.99
2019-05-13T04:58:55.820Z,1016.05
2019-05-13T04:59:55.804Z,1016.02
2019-05-13T05:01:02.726Z,1016.02
2019-05-13T05:01:59.379Z,1016.09
2019-05-13T05:02:56.786Z,1016.13
2019-05-13T05:03:55.777Z,1016.15
2019-05-13T05:04:55.761Z,1016.12
2019-05-13T05:05:55.774Z,1015.97
2019-05-13T05:06:55.780Z,1016.13
2019-05-13T05:07:55.721Z,1016.16
2019-05-13T05:08:55.726Z,1016.17
2019-05-13T05:10:16.778Z,1016.12
2019-05-13T05:10:56.686Z,1016.19
2019-05-13T05:11:55.705Z,1016.25
2019-05-13T05:12:55.671Z,1016.30
2019-05-13T05:13:56.683Z,1016.45
2019-05-13T05:14:55.667Z,1016.52
2019-05-13T05:15:55.635Z,1015.67
2019-05-13T05:16:55.619Z,1015.91
2019-05-13T05:17:55.604Z,1015.89
2019-05-13T05:18:55.595Z,1015.99
2019-05-13T05:19:55.585Z,1015.77
2019-05-13T05:20:55.595Z,1016.37
2019-05-13T05:21:55.719Z,1016.36
2019-05-13T05:22:55.570Z,1016.49
2019-05-13T05:23:55.537Z,1016.44
2019-05-13T05:24:55.523Z,1016.47
2019-05-13T05:25:55.513Z,1016.45
2019-05-13T05:26:55.526Z,1016.51
2019-05-13T05:27:58.196Z,1016.52
2019-05-13T05:28:55.482Z,1016.45
2019-05-13T05:29:55.468Z,1016.30
2019-05-13T05:30:55.452Z,1016.31
2019-05-13T05:31:55.473Z,1016.40
2019-05-13T05:32:55.456Z,1016.21
2019-05-13T05:33:55.433Z,1015.93
2019-05-13T05:34:55.421Z,1016.45
2019-05-13T05:35:55.398Z,1016.51
2019-05-13T05:36:55.402Z,1016.38
2019-05-13T05:37:55.384Z,1016.35
2019-05-13T05:38:55.388Z,1016.53
2019-05-13T05:39:55.350Z,1015.88
2019-05-13T05:40:55.341Z,1016.38
2019-05-13T05:41:55.331Z,1016.50
2019-05-13T05:42:55.318Z,1016.19
2019-05-13T05:43:55.320Z,1016.24
2019-05-13T05:44:55.320Z,1016.06
2019-05-13T05:45:55.294Z,1016.19
2019-05-13T05:46:55.281Z,1016.04
2019-05-13T05:47:55.293Z,1016.19
2019-05-13T05:48:55.249Z,1016.19
2019-05-13T05:49:55.238Z,1016.19
2019-05-13T05:50:55.255Z,1016.39
2019-05-13T05:51:55.224Z,1016.32
2019-05-13T05:52:55.204Z,1016.26
2019-05-13T05:53:55.194Z,1016.37
2019-05-13T05:54:55.190Z,1016.54
2019-05-13T05:55:55.180Z,1016.58
2019-05-13T05:56:55.180Z,1016.48
2019-05-13T05:57:55.147Z,1016.53
2019-05-13T05:58:55.141Z,1016.61
2019-05-13T05:59:55.128Z,1016.40
2019-05-13T06:00:55.130Z,1016.13
2019-05-13T06:01:55.104Z,1016.44
2019-05-13T06:02:55.113Z,1016.15
2019-05-13T06:03:55.082Z,1016.16
2019-05-13T06:04:55.071Z,1016.25
2019-05-13T06:05:55.058Z,1016.30
2019-05-13T06:06:55.077Z,1016.22
2019-05-13T06:07:55.034Z,1016.24
2019-05-13T06:08:55.047Z,1016.33
2019-05-13T06:09:55.012Z,1016.13
2019-05-13T06:10:55.963Z,1016.45
2019-05-13T06:11:54.992Z,1016.63
2019-05-13T06:12:55.007Z,1016.79
2019-05-13T06:13:54.967Z,1016.73
2019-05-13T06:14:54.982Z,1016.49
2019-05-13T06:15:54.969Z,1016.76
2019-05-13T06:16:54.968Z,1016.40
2019-05-13T06:17:54.927Z,1016.62
2019-05-13T06:18:54.925Z,1016.58
2019-05-13T06:19:54.907Z,1016.68
2019-05-13T06:20:54.920Z,1016.24
2019-05-13T06:21:54.883Z,1016.33
2019-05-13T06:22:54.879Z,1016.41
2019-05-13T06:23:54.862Z,1016.61
2019-05-13T06:24:54.862Z,1016.57
2019-05-13T06:25:54.842Z,1016.59
2019-05-13T06:26:54.851Z,1016.49
2019-05-13T06:27:54.820Z,1016.55
2019-05-13T06:28:54.813Z,1016.61
2019-05-13T06:29:54.800Z,1016.67
2019-05-13T06:30:54.824Z,1016.58
2019-05-13T06:31:54.782Z,1016.70
2019-05-13T06:32:54.795Z,1016.61
2019-05-13T06:33:54.761Z,1016.54
2019-05-13T06:34:54.740Z,1016.62
2019-05-13T06:35:54.754Z,1016.48
2019-05-13T06:36:54.716Z,1016.61
2019-05-13T06:37:54.703Z,1016.64
2019-05-13T06:38:54.733Z,1016.61
2019-05-13T06:39:54.684Z,1016.72
2019-05-13T06:41:03.386Z,1016.67
2019-05-13T06:41:55.680Z,1016.71
2019-05-13T06:42:54.649Z,1016.74
2019-05-13T06:43:54.661Z,1016.65
2019-05-13T06:44:54.658Z,1016.66
2019-05-13T06:45:54.614Z,1016.64
2019-05-13T06:46:54.634Z,1016.55
2019-05-13T06:47:54.591Z,1016.53
2019-05-13T06:48:54.579Z,1016.46
2019-05-13T06:49:54.567Z,1016.57
2019-05-13T06:50:54.579Z,1016.59
2019-05-13T06:51:54.566Z,1016.54
2019-05-13T06:52:54.576Z,1016.45
2019-05-13T06:53:54.554Z,1016.54
2019-05-13T06:54:54.512Z,1016.53
2019-05-13T06:55:54.503Z,1016.44
2019-05-13T06:56:54.515Z,1016.35
2019-05-13T06:57:54.501Z,1016.26
2019-05-13T06:58:54.472Z,1016.58
2019-05-13T06:59:54.457Z,1016.41
2019-05-13T07:00:58.101Z,1016.38
2019-05-13T07:01:54.439Z,1016.42
2019-05-13T07:02:54.453Z,1016.37
2019-05-13T07:03:54.416Z,1016.37
2019-05-13T07:04:54.405Z,1016.61
2019-05-13T07:05:54.397Z,1016.50
2019-05-13T07:07:08.945Z,1016.48
2019-05-13T07:07:55.419Z,1016.68
2019-05-13T07:08:54.356Z,1016.68
2019-05-13T07:09:54.350Z,1016.72
2019-05-13T07:10:54.336Z,1016.62
2019-05-13T07:11:56.905Z,1016.64
2019-05-13T07:12:54.337Z,1016.72
2019-05-13T07:13:54.352Z,1016.77
2019-05-13T07:14:54.306Z,1016.66
2019-05-13T07:15:54.287Z,1016.56
2019-05-13T07:16:54.272Z,1016.55
2019-05-13T07:17:54.265Z,1016.62
2019-05-13T07:18:54.253Z,1016.38
2019-05-13T07:19:54.256Z,1016.45
2019-05-13T07:20:54.230Z,1016.51
2019-05-13T07:21:54.223Z,1016.58
2019-05-13T07:22:54.210Z,1016.80
2019-05-13T07:23:55.001Z,1016.76
2019-05-13T07:24:54.183Z,1016.67
2019-05-13T07:25:54.190Z,1016.60
2019-05-13T07:26:54.166Z,1016.73
2019-05-13T07:27:54.156Z,1016.67
2019-05-13T07:28:54.139Z,1016.70
2019-05-13T07:29:55.746Z,1016.63
2019-05-13T07:30:54.121Z,1016.61
2019-05-13T07:31:54.128Z,1016.52
2019-05-13T07:32:54.095Z,1016.64
2019-05-13T07:33:54.083Z,1016.51
2019-05-13T07:34:54.085Z,1016.65
2019-05-13T07:35:58.299Z,1016.61
2019-05-13T07:36:54.052Z,1016.40
2019-05-13T07:37:54.062Z,1016.43
2019-05-13T07:38:54.032Z,1016.55
2019-05-13T07:39:54.025Z,1016.54
2019-05-13T07:40:54.015Z,1016.59
2019-05-13T07:41:53.998Z,1016.65
2019-05-13T07:42:53.991Z,1016.72
2019-05-13T07:43:54.002Z,1016.88
2019-05-13T07:44:53.973Z,1016.83
2019-05-13T07:45:53.962Z,1016.90
2019-05-13T07:46:53.942Z,1016.66
2019-05-13T07:47:53.933Z,1016.70
2019-05-13T07:48:53.925Z,1016.64
2019-05-13T07:49:53.927Z,1016.79
2019-05-13T07:51:00.363Z,1016.71
2019-05-13T07:51:54.981Z,1016.96
2019-05-13T07:52:53.879Z,1016.95
2019-05-13T07:53:53.870Z,1016.89
2019-05-13T07:54:53.856Z,1016.93
2019-05-13T07:55:53.867Z,1016.83
2019-05-13T07:56:53.837Z,1016.84
2019-05-13T07:57:53.832Z,1016.83
2019-05-13T07:58:53.818Z,1016.74
2019-05-13T07:59:53.803Z,1016.79
2019-05-13T08:00:53.797Z,1016.82
2019-05-13T08:01:53.809Z,1016.69
2019-05-13T08:02:53.775Z,1016.75
2019-05-13T08:03:53.759Z,1016.56
2019-05-13T08:04:53.746Z,1016.65
2019-05-13T08:05:53.737Z,1016.86
2019-05-13T08:06:53.729Z,1016.83
2019-05-13T08:07:53.746Z,1016.86
2019-05-13T08:08:53.724Z,1016.82
2019-05-13T08:09:56.096Z,1016.97
2019-05-13T08:10:54.681Z,1016.90
2019-05-13T08:12:05.163Z,1016.79
2019-05-13T08:12:54.684Z,1016.61
2019-05-13T08:13:53.655Z,1017.11
2019-05-13T08:14:53.639Z,1017.09
2019-05-13T08:15:54.734Z,1017.17
2019-05-13T08:16:53.623Z,1016.88
2019-05-13T08:17:53.630Z,1017.10
2019-05-13T08:18:53.618Z,1017.00
2019-05-13T08:19:53.588Z,1017.00
2019-05-13T08:20:53.588Z,1017.14
2019-05-13T08:21:53.565Z,1017.10
2019-05-13T08:22:53.559Z,1017.01
2019-05-13T08:23:53.543Z,1017.04
2019-05-13T08:24:54.444Z,1016.98
2019-05-13T08:25:53.524Z,1017.08
2019-05-13T08:26:53.586Z,1017.08
2019-05-13T08:27:53.503Z,1017.20
2019-05-13T08:29:01.252Z,1017.11
2019-05-13T08:29:54.506Z,1017.09
2019-05-13T08:30:53.532Z,1017.23
2019-05-13T08:31:53.468Z,1017.36
2019-05-13T08:32:53.464Z,1017.26
2019-05-13T08:33:53.455Z,1017.18
2019-05-13T08:35:01.695Z,1016.88
2019-05-13T08:35:58.691Z,1017.13
2019-05-13T08:36:53.409Z,1017.54
2019-05-13T08:37:53.398Z,1017.23
2019-05-13T08:38:53.388Z,1016.82
2019-05-13T08:39:53.374Z,1016.95
2019-05-13T08:40:53.367Z,1017.15
2019-05-13T08:41:53.391Z,1016.97
2019-05-13T08:42:53.349Z,1017.05
2019-05-13T08:43:53.383Z,1017.11
2019-05-13T08:44:53.337Z,1017.04
2019-05-13T08:45:55.635Z,1016.98
2019-05-13T08:46:53.302Z,1016.81
2019-05-13T08:47:53.356Z,1016.77
2019-05-13T08:48:53.308Z,1016.93
2019-05-13T08:49:53.292Z,1016.90
2019-05-13T08:50:53.305Z,1016.63
2019-05-13T08:51:53.252Z,1017.09
2019-05-13T08:52:53.269Z,1017.16
2019-05-13T08:53:53.319Z,1016.56
2019-05-13T08:54:53.227Z,1017.07
2019-05-13T08:55:53.224Z,1017.11
2019-05-13T08:56:53.199Z,1017.19
2019-05-13T08:57:55.272Z,1016.76
2019-05-13T08:58:53.199Z,1017.15
2019-05-13T08:59:53.200Z,1017.20
2019-05-13T09:00:53.382Z,1016.75
2019-05-13T09:01:53.147Z,1016.74
2019-05-13T09:02:53.137Z,1017.07
2019-05-13T09:03:53.126Z,1017.17
2019-05-13T09:04:53.125Z,1016.82
2019-05-13T09:05:53.169Z,1016.93
2019-05-13T09:06:53.104Z,1017.04
2019-05-13T09:07:53.089Z,1016.89
2019-05-13T09:08:54.262Z,1016.82
2019-05-13T09:09:53.068Z,1017.12
2019-05-13T09:10:56.547Z,1017.14
2019-05-13T09:11:53.069Z,1017.09
2019-05-13T09:12:53.046Z,1017.04
2019-05-13T09:13:53.026Z,1017.04
2019-05-13T09:14:53.015Z,1017.04
2019-05-13T09:15:53.019Z,1017.08
2019-05-13T09:16:53.007Z,1016.98
2019-05-13T09:17:53.022Z,1017.00
2019-05-13T09:18:52.975Z,1016.91
2019-05-13T09:19:53.022Z,1017.00
2019-05-13T09:20:52.956Z,1016.81
2019-05-13T09:21:52.945Z,1016.93
2019-05-13T09:22:52.939Z,1016.82
2019-05-13T09:23:52.953Z,1016.88
2019-05-13T09:24:53.191Z,1016.94
2019-05-13T09:25:52.905Z,1016.90
2019-05-13T09:26:52.916Z,1016.88
2019-05-13T09:27:52.886Z,1016.71
2019-05-13T09:28:52.892Z,1016.72
2019-05-13T09:29:52.906Z,1016.75
2019-05-13T09:30:53.380Z,1016.75
2019-05-13T09:31:52.843Z,1016.77
2019-05-13T09:32:52.834Z,1016.69
2019-05-13T09:33:52.828Z,1016.55
2019-05-13T09:34:52.827Z,1016.73
2019-05-13T09:35:53.718Z,1016.63
2019-05-13T09:36:52.796Z,1016.75
2019-05-13T09:37:52.817Z,1016.83
2019-05-13T09:38:52.777Z,1016.85
2019-05-13T09:39:52.773Z,1016.66
2019-05-13T09:40:53.320Z,1016.63
2019-05-13T09:41:52.774Z,1016.68
2019-05-13T09:42:55.224Z,1016.75
2019-05-13T09:43:52.732Z,1016.73
2019-05-13T09:44:52.767Z,1016.77
2019-05-13T09:45:52.747Z,1016.74
2019-05-13T09:46:52.692Z,1016.68
2019-05-13T09:47:52.737Z,1016.65
2019-05-13T09:48:52.671Z,1016.63
2019-05-13T09:49:54.553Z,1016.66
2019-05-13T09:50:52.654Z,1016.67
2019-05-13T09:51:52.643Z,1016.67
2019-05-13T09:52:52.655Z,1016.73
2019-05-13T09:53:52.647Z,1016.72
2019-05-13T09:54:52.612Z,1016.63
2019-05-13T09:55:52.658Z,1016.59
2019-05-13T09:56:52.595Z,1016.58
2019-05-13T09:57:52.656Z,1016.60
2019-05-13T09:58:52.579Z,1016.57
2019-05-13T09:59:52.602Z,1016.62
2019-05-13T10:00:53.294Z,1016.58
2019-05-13T10:01:52.555Z,1016.66
2019-05-13T10:02:52.543Z,1016.63
2019-05-13T10:03:57.189Z,1016.72
2019-05-13T10:04:53.547Z,1016.63
2019-05-13T10:05:52.517Z,1016.66
2019-05-13T10:06:52.506Z,1016.61
2019-05-13T10:07:52.488Z,1016.63
2019-05-13T10:08:52.824Z,1016.63
2019-05-13T10:09:52.474Z,1016.67
2019-05-13T10:10:52.975Z,1016.67
2019-05-13T10:11:52.457Z,1016.60
2019-05-13T10:13:07.931Z,1016.52
2019-05-13T10:13:53.440Z,1016.59
2019-05-13T10:14:52.431Z,1016.63
2019-05-13T10:15:52.414Z,1016.69
2019-05-13T10:16:52.430Z,1016.56
2019-05-13T10:17:52.778Z,1016.56
2019-05-13T10:18:52.822Z,1016.56
2019-05-13T10:19:52.403Z,1016.60
2019-05-13T10:20:57.228Z,1016.53
2019-05-13T10:21:53.374Z,1016.47
2019-05-13T10:22:52.902Z,1016.49
2019-05-13T10:23:52.354Z,1016.47
2019-05-13T10:24:52.329Z,1016.61
2019-05-13T10:25:52.326Z,1016.72
2019-05-13T10:26:52.312Z,1016.68
2019-05-13T10:27:52.316Z,1016.76
2019-05-13T10:28:52.301Z,1016.69
2019-05-13T10:29:52.309Z,1016.34
2019-05-13T10:30:53.041Z,1016.66
2019-05-13T10:31:52.275Z,1016.66
2019-05-13T10:32:52.778Z,1016.72
2019-05-13T10:33:52.278Z,1016.70
2019-05-13T10:34:52.251Z,1016.75
2019-05-13T10:35:52.687Z,1016.65
2019-05-13T10:36:52.238Z,1016.61
2019-05-13T10:37:52.431Z,1016.31
2019-05-13T10:38:52.639Z,1016.67
2019-05-13T10:39:52.243Z,1016.78
2019-05-13T10:40:52.272Z,1016.81
2019-05-13T10:41:52.553Z,1016.79
2019-05-13T10:42:52.488Z,1016.80
2019-05-13T10:43:52.340Z,1016.80
2019-05-13T10:44:52.498Z,1016.85
2019-05-13T10:45:52.580Z,1016.81
2019-05-13T10:46:52.390Z,1016.73
2019-05-13T10:47:52.116Z,1016.63
2019-05-13T10:48:52.807Z,1016.61
2019-05-13T10:49:52.500Z,1016.63
2019-05-13T10:50:53.118Z,1016.67
2019-05-13T10:51:52.759Z,1016.68
2019-05-13T10:52:52.324Z,1016.55
2019-05-13T10:53:53.578Z,1016.51
2019-05-13T10:54:53.041Z,1016.53
2019-05-13T10:55:52.407Z,1016.59
2019-05-13T10:56:54.168Z,1016.52
2019-05-13T10:57:52.034Z,1016.44
2019-05-13T10:58:53.464Z,1016.42
2019-05-13T10:59:52.917Z,1016.33
2019-05-13T11:00:51.988Z,1016.28
2019-05-13T11:01:52.034Z,1016.37
2019-05-13T11:02:52.000Z,1016.38
2019-05-13T11:03:52.578Z,1016.38
2019-05-13T11:04:52.731Z,1016.39
2019-05-13T11:05:52.775Z,1016.34
2019-05-13T11:06:52.635Z,1016.42
2019-05-13T11:07:51.912Z,1016.35
2019-05-13T11:08:53.102Z,1016.16
2019-05-13T11:09:52.932Z,1016.14
2019-05-13T11:10:53.137Z,1016.16
2019-05-13T11:11:52.867Z,1016.12
2019-05-13T11:12:52.151Z,1016.22
2019-05-13T11:13:58.850Z,1016.12
2019-05-13T11:14:55.156Z,1016.22
2019-05-13T11:15:57.487Z,1016.13
2019-05-13T11:16:52.823Z,1016.10
2019-05-13T11:17:52.011Z,1016.02
2019-05-13T11:18:52.141Z,1016.04
2019-05-13T11:19:51.800Z,1016.09
2019-05-13T11:20:51.834Z,1016.13
2019-05-13T11:21:51.781Z,1016.21
2019-05-13T11:22:52.228Z,1016.13
2019-05-13T11:23:52.329Z,1016.14
2019-05-13T11:24:51.987Z,1016.14
2019-05-13T11:25:52.426Z,1016.13
2019-05-13T11:26:52.981Z,1016.10
2019-05-13T11:27:52.461Z,1016.07
2019-05-13T11:28:52.273Z,1016.11
2019-05-13T11:29:52.456Z,1016.00
2019-05-13T11:30:52.206Z,1015.97
2019-05-13T11:31:52.691Z,1015.96
2019-05-13T11:32:51.863Z,1015.91
2019-05-13T11:33:52.206Z,1015.93
2019-05-13T11:34:52.921Z,1015.92
2019-05-13T11:35:52.512Z,1015.88
2019-05-13T11:36:53.120Z,1015.98
2019-05-13T11:37:52.170Z,1016.03
2019-05-13T11:38:53.180Z,1015.95
2019-05-13T11:39:51.819Z,1015.86
2019-05-13T11:40:52.319Z,1015.54
2019-05-13T11:41:51.626Z,1015.05
2019-05-13T11:42:52.611Z,1014.72
2019-05-13T11:44:09.275Z,1014.73
2019-05-13T11:44:53.051Z,1014.72
2019-05-13T11:45:51.808Z,1014.67
2019-05-13T11:46:53.027Z,1014.69
2019-05-13T11:47:52.223Z,1014.61
2019-05-13T11:48:52.031Z,1014.64
2019-05-13T11:49:52.403Z,1014.65
2019-05-13T11:50:54.105Z,1014.64
2019-05-13T11:51:52.044Z,1014.67
2019-05-13T11:52:52.438Z,1014.62
2019-05-13T11:53:52.433Z,1014.53
2019-05-13T11:54:53.863Z,1014.59
2019-05-13T11:55:52.300Z,1014.52
2019-05-13T11:57:53.352Z,1014.52
2019-05-13T11:58:53.293Z,1014.46
2019-05-13T11:59:52.664Z,1014.43
2019-05-13T12:00:53.091Z,1014.39
2019-05-13T12:01:53.823Z,1014.44
2019-05-13T12:02:54.605Z,1014.39
2019-05-13T12:04:53.536Z,1014.41
2019-05-13T12:05:53.695Z,1014.35
2019-05-13T12:06:54.579Z,1014.35
2019-05-13T12:07:53.522Z,1014.45